Terminal Aerodrome Forecast
Issued by NWS

Home | Current Version | Previous Version | Text Only | Print | Product List | Glossary Off
Versions: 1 2 3 4 5 6 7 8 9 10 11 12 13 14 15 16 17 18 19 20

000
FTUS42 KMHX 210535
TAFISO
TAF
KISO 210535Z 2106/2206 00000KT 5SM -RA BR BKN004
     FM211000 24005KT 5SM BR VCSH OVC012
     FM211600 24008KT P6SM BKN030
     FM211800 24008KT P6SM BKN035
     FM220000 21004KT P6SM SCT090
      AMD LTD TO CLD VIS AND WIND=

USA.gov is the U.S. government's official web portal to all federal, state and local government web resources and services.